sensor_id;sensor_type;location;lat;lon;timestamp;P1;durP1;ratioP1;P2;durP2;ratioP2
10092;SDS011;5085;48.092;11.484;2023-03-03T00:01:27;22.80;;;10.20;;
10092;SDS011;5085;48.092;11.484;2023-03-03T00:03:53;23.55;;;10.15;;
10092;SDS011;5085;48.092;11.484;2023-03-03T00:06:20;28.30;;;11.65;;
10092;SDS011;5085;48.092;11.484;2023-03-03T00:08:46;23.23;;;9.55;;
10092;SDS011;5085;48.092;11.484;2023-03-03T00:11:12;26.13;;;10.50;;
10092;SDS011;5085;48.092;11.484;2023-03-03T00:13:45;32.08;;;10.35;;
10092;SDS011;5085;48.092;11.484;2023-03-03T00:18:55;19.55;;;8.93;;
10092;SDS011;5085;48.092;11.484;2023-03-03T00:21:29;25.25;;;9.23;;
10092;SDS011;5085;48.092;11.484;2023-03-03T00:24:01;24.38;;;9.68;;
10092;SDS011;5085;48.092;11.484;2023-03-03T00:27:29;18.50;;;9.02;;
10092;SDS011;5085;48.092;11.484;2023-03-03T00:29:47;24.67;;;9.77;;
10092;SDS011;5085;48.092;11.484;2023-03-03T00:35:22;23.80;;;9.07;;
10092;SDS011;5085;48.092;11.484;2023-03-03T00:37:54;24.10;;;9.38;;
10092;SDS011;5085;48.092;11.484;2023-03-03T00:40:23;21.70;;;9.25;;
10092;SDS011;5085;48.092;11.484;2023-03-03T00:42:52;23.48;;;9.15;;
10092;SDS011;5085;48.092;11.484;2023-03-03T00:47:51;24.17;;;9.50;;
10092;SDS011;5085;48.092;11.484;2023-03-03T00:50:33;23.55;;;9.85;;
10092;SDS011;5085;48.092;11.484;2023-03-03T00:53:04;27.23;;;9.38;;
10092;SDS011;5085;48.092;11.484;2023-03-03T00:55:36;22.92;;;10.43;;
10092;SDS011;5085;48.092;11.484;2023-03-03T00:58:02;27.45;;;9.73;;
10092;SDS011;5085;48.092;11.484;2023-03-03T01:00:34;20.95;;;9.23;;
10092;SDS011;5085;48.092;11.484;2023-03-03T01:03:03;22.23;;;9.55;;
10092;SDS011;5085;48.092;11.484;2023-03-03T01:05:31;26.50;;;9.57;;
10092;SDS011;5085;48.092;11.484;2023-03-03T01:07:57;22.92;;;9.00;;
10092;SDS011;5085;48.092;11.484;2023-03-03T01:10:23;21.00;;;8.70;;
10092;SDS011;5085;48.092;11.484;2023-03-03T01:12:51;26.98;;;10.07;;
10092;SDS011;5085;48.092;11.484;2023-03-03T01:15:17;26.63;;;9.93;;
10092;SDS011;5085;48.092;11.484;2023-03-03T01:17:43;20.98;;;8.88;;
10092;SDS011;5085;48.092;11.484;2023-03-03T01:20:10;19.98;;;8.55;;
10092;SDS011;5085;48.092;11.484;2023-03-03T01:22:38;24.85;;;9.85;;
10092;SDS011;5085;48.092;11.484;2023-03-03T01:25:07;26.92;;;10.35;;
10092;SDS011;5085;48.092;11.484;2023-03-03T01:27:33;22.42;;;8.90;;
10092;SDS011;5085;48.092;11.484;2023-03-03T01:30:00;21.27;;;10.23;;
10092;SDS011;5085;48.092;11.484;2023-03-03T01:32:27;24.58;;;8.68;;
10092;SDS011;5085;48.092;11.484;2023-03-03T01:34:53;30.38;;;10.68;;
10092;SDS011;5085;48.092;11.484;2023-03-03T01:37:19;29.73;;;10.40;;
10092;SDS011;5085;48.092;11.484;2023-03-03T01:39:49;19.80;;;8.05;;
10092;SDS011;5085;48.092;11.484;2023-03-03T01:42:16;24.85;;;9.70;;
10092;SDS011;5085;48.092;11.484;2023-03-03T01:44:42;26.65;;;9.63;;
10092;SDS011;5085;48.092;11.484;2023-03-03T01:49:59;17.17;;;8.15;;
10092;SDS011;5085;48.092;11.484;2023-03-03T01:52:34;19.48;;;8.50;;
10092;SDS011;5085;48.092;11.484;2023-03-03T01:55:16;25.25;;;9.10;;
10092;SDS011;5085;48.092;11.484;2023-03-03T01:57:47;20.48;;;8.60;;
10092;SDS011;5085;48.092;11.484;2023-03-03T02:00:19;18.00;;;8.02;;
10092;SDS011;5085;48.092;11.484;2023-03-03T02:02:46;21.17;;;8.95;;
10092;SDS011;5085;48.092;11.484;2023-03-03T02:05:12;22.70;;;9.18;;
10092;SDS011;5085;48.092;11.484;2023-03-03T02:07:39;25.95;;;9.05;;
10092;SDS011;5085;48.092;11.484;2023-03-03T02:10:13;24.92;;;9.68;;
10092;SDS011;5085;48.092;11.484;2023-03-03T02:12:42;27.05;;;8.75;;
10092;SDS011;5085;48.092;11.484;2023-03-03T02:15:24;26.98;;;9.60;;
10092;SDS011;5085;48.092;11.484;2023-03-03T02:17:53;26.25;;;9.45;;
10092;SDS011;5085;48.092;11.484;2023-03-03T02:26:14;17.38;;;7.50;;
10092;SDS011;5085;48.092;11.484;2023-03-03T02:28:42;22.50;;;9.38;;
10092;SDS011;5085;48.092;11.484;2023-03-03T02:31:11;28.08;;;9.82;;
10092;SDS011;5085;48.092;11.484;2023-03-03T02:33:43;21.25;;;9.05;;
10092;SDS011;5085;48.092;11.484;2023-03-03T02:36:11;22.90;;;10.27;;
10092;SDS011;5085;48.092;11.484;2023-03-03T02:39:25;26.70;;;11.82;;
10092;SDS011;5085;48.092;11.484;2023-03-03T02:44:41;21.73;;;8.77;;
10092;SDS011;5085;48.092;11.484;2023-03-03T02:47:07;19.67;;;7.97;;
10092;SDS011;5085;48.092;11.484;2023-03-03T02:49:35;17.52;;;7.95;;
10092;SDS011;5085;48.092;11.484;2023-03-03T02:52:03;26.83;;;9.82;;
10092;SDS011;5085;48.092;11.484;2023-03-03T02:54:32;23.27;;;8.38;;
10092;SDS011;5085;48.092;11.484;2023-03-03T02:57:00;22.15;;;7.97;;
10092;SDS011;5085;48.092;11.484;2023-03-03T02:59:27;25.38;;;9.18;;
10092;SDS011;5085;48.092;11.484;2023-03-03T03:01:56;21.88;;;9.13;;
10092;SDS011;5085;48.092;11.484;2023-03-03T03:04:25;25.33;;;9.15;;
10092;SDS011;5085;48.092;11.484;2023-03-03T03:06:53;20.95;;;9.25;;
10092;SDS011;5085;48.092;11.484;2023-03-03T03:09:20;21.00;;;9.23;;
10092;SDS011;5085;48.092;11.484;2023-03-03T03:11:49;17.92;;;8.55;;
10092;SDS011;5085;48.092;11.484;2023-03-03T03:14:19;20.58;;;8.98;;
10092;SDS011;5085;48.092;11.484;2023-03-03T03:16:46;22.65;;;10.18;;
10092;SDS011;5085;48.092;11.484;2023-03-03T03:19:12;25.55;;;9.90;;
10092;SDS011;5085;48.092;11.484;2023-03-03T03:21:39;18.45;;;8.15;;
10092;SDS011;5085;48.092;11.484;2023-03-03T03:24:06;25.67;;;9.10;;
10092;SDS011;5085;48.092;11.484;2023-03-03T03:26:34;22.80;;;8.27;;
10092;SDS011;5085;48.092;11.484;2023-03-03T03:29:01;20.98;;;8.48;;
10092;SDS011;5085;48.092;11.484;2023-03-03T03:31:27;21.00;;;8.38;;
10092;SDS011;5085;48.092;11.484;2023-03-03T03:33:53;28.70;;;10.38;;
10092;SDS011;5085;48.092;11.484;2023-03-03T03:36:20;24.00;;;9.75;;
10092;SDS011;5085;48.092;11.484;2023-03-03T03:38:47;29.60;;;10.60;;
10092;SDS011;5085;48.092;11.484;2023-03-03T03:41:13;25.23;;;9.35;;
10092;SDS011;5085;48.092;11.484;2023-03-03T03:43:40;29.75;;;9.50;;
10092;SDS011;5085;48.092;11.484;2023-03-03T03:46:06;21.83;;;9.38;;
10092;SDS011;5085;48.092;11.484;2023-03-03T03:48:33;23.73;;;9.93;;
10092;SDS011;5085;48.092;11.484;2023-03-03T03:51:00;22.73;;;9.88;;
10092;SDS011;5085;48.092;11.484;2023-03-03T03:53:27;20.35;;;8.68;;
10092;SDS011;5085;48.092;11.484;2023-03-03T03:55:53;24.77;;;9.88;;
10092;SDS011;5085;48.092;11.484;2023-03-03T03:58:19;26.70;;;9.48;;
10092;SDS011;5085;48.092;11.484;2023-03-03T04:01:00;24.50;;;9.82;;
10092;SDS011;5085;48.092;11.484;2023-03-03T04:03:32;28.10;;;9.93;;
10092;SDS011;5085;48.092;11.484;2023-03-03T04:05:58;26.90;;;11.10;;
10092;SDS011;5085;48.092;11.484;2023-03-03T04:08:24;26.05;;;10.30;;
10092;SDS011;5085;48.092;11.484;2023-03-03T04:10:50;24.15;;;10.15;;
10092;SDS011;5085;48.092;11.484;2023-03-03T04:13:17;23.00;;;9.60;;
10092;SDS011;5085;48.092;11.484;2023-03-03T04:15:43;26.85;;;9.63;;
10092;SDS011;5085;48.092;11.484;2023-03-03T04:18:10;29.52;;;10.30;;
10092;SDS011;5085;48.092;11.484;2023-03-03T04:20:36;25.52;;;10.50;;
10092;SDS011;5085;48.092;11.484;2023-03-03T04:23:04;25.35;;;11.50;;
10092;SDS011;5085;48.092;11.484;2023-03-03T04:25:31;27.38;;;10.60;;
10092;SDS011;5085;48.092;11.484;2023-03-03T04:27:57;25.02;;;10.90;;
10092;SDS011;5085;48.092;11.484;2023-03-03T04:30:24;21.40;;;9.82;;
10092;SDS011;5085;48.092;11.484;2023-03-03T04:32:54;27.30;;;11.50;;
10092;SDS011;5085;48.092;11.484;2023-03-03T04:35:22;25.27;;;11.32;;
10092;SDS011;5085;48.092;11.484;2023-03-03T04:37:48;30.58;;;11.18;;
10092;SDS011;5085;48.092;11.484;2023-03-03T04:40:15;24.38;;;9.68;;
10092;SDS011;5085;48.092;11.484;2023-03-03T04:42:42;25.23;;;9.55;;
10092;SDS011;5085;48.092;11.484;2023-03-03T04:45:09;25.27;;;10.65;;
10092;SDS011;5085;48.092;11.484;2023-03-03T04:47:37;26.70;;;10.48;;
10092;SDS011;5085;48.092;11.484;2023-03-03T04:50:10;22.05;;;9.98;;
10092;SDS011;5085;48.092;11.484;2023-03-03T04:52:37;28.13;;;10.80;;
10092;SDS011;5085;48.092;11.484;2023-03-03T04:55:04;25.48;;;9.80;;
10092;SDS011;5085;48.092;11.484;2023-03-03T04:57:31;28.60;;;10.80;;
10092;SDS011;5085;48.092;11.484;2023-03-03T04:59:57;26.55;;;11.07;;
10092;SDS011;5085;48.092;11.484;2023-03-03T05:02:23;22.95;;;10.55;;
10092;SDS011;5085;48.092;11.484;2023-03-03T05:04:49;24.67;;;11.18;;
10092;SDS011;5085;48.092;11.484;2023-03-03T05:07:15;28.77;;;10.10;;
10092;SDS011;5085;48.092;11.484;2023-03-03T05:09:43;30.05;;;10.63;;
10092;SDS011;5085;48.092;11.484;2023-03-03T05:12:09;26.00;;;11.63;;
10092;SDS011;5085;48.092;11.484;2023-03-03T05:14:35;26.30;;;10.32;;
10092;SDS011;5085;48.092;11.484;2023-03-03T05:17:02;32.30;;;12.40;;
10092;SDS011;5085;48.092;11.484;2023-03-03T05:19:29;27.27;;;9.82;;
10092;SDS011;5085;48.092;11.484;2023-03-03T05:21:55;23.58;;;9.38;;
10092;SDS011;5085;48.092;11.484;2023-03-03T05:24:22;26.40;;;11.40;;
10092;SDS011;5085;48.092;11.484;2023-03-03T05:26:48;24.65;;;9.85;;
10092;SDS011;5085;48.092;11.484;2023-03-03T05:29:14;27.45;;;10.65;;
10092;SDS011;5085;48.092;11.484;2023-03-03T05:31:40;23.08;;;9.70;;
10092;SDS011;5085;48.092;11.484;2023-03-03T05:34:06;30.98;;;10.38;;
10092;SDS011;5085;48.092;11.484;2023-03-03T05:36:32;26.45;;;10.55;;
10092;SDS011;5085;48.092;11.484;2023-03-03T05:38:58;29.80;;;11.43;;
10092;SDS011;5085;48.092;11.484;2023-03-03T05:41:24;32.97;;;11.68;;
10092;SDS011;5085;48.092;11.484;2023-03-03T05:43:50;25.35;;;9.85;;
10092;SDS011;5085;48.092;11.484;2023-03-03T05:46:17;26.63;;;10.35;;
10092;SDS011;5085;48.092;11.484;2023-03-03T05:48:43;29.88;;;10.85;;
10092;SDS011;5085;48.092;11.484;2023-03-03T05:51:09;28.00;;;10.60;;
10092;SDS011;5085;48.092;11.484;2023-03-03T05:53:35;31.42;;;11.77;;
10092;SDS011;5085;48.092;11.484;2023-03-03T05:56:02;32.78;;;11.20;;
10092;SDS011;5085;48.092;11.484;2023-03-03T05:58:28;32.10;;;12.00;;
10092;SDS011;5085;48.092;11.484;2023-03-03T06:00:54;28.92;;;11.88;;
10092;SDS011;5085;48.092;11.484;2023-03-03T06:03:21;26.73;;;11.25;;
10092;SDS011;5085;48.092;11.484;2023-03-03T06:05:47;32.22;;;11.75;;
10092;SDS011;5085;48.092;11.484;2023-03-03T06:08:13;27.65;;;11.23;;
10092;SDS011;5085;48.092;11.484;2023-03-03T06:10:39;30.67;;;12.35;;
10092;SDS011;5085;48.092;11.484;2023-03-03T06:13:08;28.83;;;11.93;;
10092;SDS011;5085;48.092;11.484;2023-03-03T06:15:34;25.40;;;10.90;;
10092;SDS011;5085;48.092;11.484;2023-03-03T06:18:00;32.88;;;11.48;;
10092;SDS011;5085;48.092;11.484;2023-03-03T06:20:26;33.95;;;13.05;;
10092;SDS011;5085;48.092;11.484;2023-03-03T06:22:52;29.00;;;11.77;;
10092;SDS011;5085;48.092;11.484;2023-03-03T06:25:18;28.20;;;12.48;;
10092;SDS011;5085;48.092;11.484;2023-03-03T06:27:44;31.73;;;11.95;;
10092;SDS011;5085;48.092;11.484;2023-03-03T06:30:10;25.48;;;11.13;;
10092;SDS011;5085;48.092;11.484;2023-03-03T06:32:37;27.73;;;12.02;;
10092;SDS011;5085;48.092;11.484;2023-03-03T06:35:03;33.33;;;11.98;;
10092;SDS011;5085;48.092;11.484;2023-03-03T06:37:30;32.90;;;11.75;;
10092;SDS011;5085;48.092;11.484;2023-03-03T06:39:55;28.85;;;11.52;;
10092;SDS011;5085;48.092;11.484;2023-03-03T06:42:22;31.40;;;12.75;;
10092;SDS011;5085;48.092;11.484;2023-03-03T06:44:49;32.00;;;12.10;;
10092;SDS011;5085;48.092;11.484;2023-03-03T06:47:15;27.23;;;11.75;;
10092;SDS011;5085;48.092;11.484;2023-03-03T06:49:42;32.20;;;12.85;;
10092;SDS011;5085;48.092;11.484;2023-03-03T06:52:11;35.47;;;12.55;;
10092;SDS011;5085;48.092;11.484;2023-03-03T06:54:47;28.25;;;11.60;;
10092;SDS011;5085;48.092;11.484;2023-03-03T06:57:32;35.40;;;12.40;;
10092;SDS011;5085;48.092;11.484;2023-03-03T07:00:01;35.90;;;12.70;;
10092;SDS011;5085;48.092;11.484;2023-03-03T07:03:03;37.50;;;13.85;;
10092;SDS011;5085;48.092;11.484;2023-03-03T07:05:37;30.40;;;12.85;;
10092;SDS011;5085;48.092;11.484;2023-03-03T07:08:05;29.17;;;11.85;;
10092;SDS011;5085;48.092;11.484;2023-03-03T07:10:35;32.75;;;11.73;;
10092;SDS011;5085;48.092;11.484;2023-03-03T07:13:07;37.42;;;12.75;;
10092;SDS011;5085;48.092;11.484;2023-03-03T07:15:40;31.25;;;12.40;;
10092;SDS011;5085;48.092;11.484;2023-03-03T07:18:10;30.52;;;13.48;;
10092;SDS011;5085;48.092;11.484;2023-03-03T07:20:49;32.38;;;13.07;;
10092;SDS011;5085;48.092;11.484;2023-03-03T07:23:22;31.55;;;12.32;;
10092;SDS011;5085;48.092;11.484;2023-03-03T07:25:50;32.58;;;12.77;;
10092;SDS011;5085;48.092;11.484;2023-03-03T07:28:27;34.92;;;12.68;;
10092;SDS011;5085;48.092;11.484;2023-03-03T07:30:57;37.15;;;12.45;;
10092;SDS011;5085;48.092;11.484;2023-03-03T07:33:28;36.50;;;14.20;;
10092;SDS011;5085;48.092;11.484;2023-03-03T07:35:59;29.50;;;12.75;;
10092;SDS011;5085;48.092;11.484;2023-03-03T07:38:32;33.55;;;13.75;;
10092;SDS011;5085;48.092;11.484;2023-03-03T07:41:03;38.00;;;13.50;;
10092;SDS011;5085;48.092;11.484;2023-03-03T07:43:36;33.15;;;13.23;;
10092;SDS011;5085;48.092;11.484;2023-03-03T07:49:20;33.83;;;12.77;;
10092;SDS011;5085;48.092;11.484;2023-03-03T07:51:59;33.58;;;12.40;;
10092;SDS011;5085;48.092;11.484;2023-03-03T07:54:39;36.35;;;14.60;;
10092;SDS011;5085;48.092;11.484;2023-03-03T07:57:14;38.28;;;13.30;;
10092;SDS011;5085;48.092;11.484;2023-03-03T07:59:45;35.97;;;13.43;;
10092;SDS011;5085;48.092;11.484;2023-03-03T08:04:48;34.60;;;13.43;;
10092;SDS011;5085;48.092;11.484;2023-03-03T08:07:17;35.22;;;13.60;;
10092;SDS011;5085;48.092;11.484;2023-03-03T08:09:48;45.83;;;14.15;;
10092;SDS011;5085;48.092;11.484;2023-03-03T08:12:34;42.80;;;13.40;;
10092;SDS011;5085;48.092;11.484;2023-03-03T08:15:11;40.50;;;15.13;;
10092;SDS011;5085;48.092;11.484;2023-03-03T08:17:47;35.63;;;13.77;;
10092;SDS011;5085;48.092;11.484;2023-03-03T08:23:09;37.33;;;15.05;;
10092;SDS011;5085;48.092;11.484;2023-03-03T08:25:39;41.28;;;14.15;;
10092;SDS011;5085;48.092;11.484;2023-03-03T08:28:07;39.83;;;13.77;;
10092;SDS011;5085;48.092;11.484;2023-03-03T08:30:34;33.58;;;13.23;;
10092;SDS011;5085;48.092;11.484;2023-03-03T08:33:00;38.33;;;13.75;;
10092;SDS011;5085;48.092;11.484;2023-03-03T08:35:26;36.47;;;14.10;;
10092;SDS011;5085;48.092;11.484;2023-03-03T08:37:52;38.13;;;13.13;;
10092;SDS011;5085;48.092;11.484;2023-03-03T08:40:18;42.70;;;14.93;;
10092;SDS011;5085;48.092;11.484;2023-03-03T08:42:44;35.95;;;13.82;;
10092;SDS011;5085;48.092;11.484;2023-03-03T08:45:10;40.92;;;15.73;;
10092;SDS011;5085;48.092;11.484;2023-03-03T08:47:37;42.28;;;15.25;;
10092;SDS011;5085;48.092;11.484;2023-03-03T08:50:06;36.55;;;14.40;;
10092;SDS011;5085;48.092;11.484;2023-03-03T08:52:32;36.08;;;13.80;;
10092;SDS011;5085;48.092;11.484;2023-03-03T08:54:59;46.67;;;14.88;;
10092;SDS011;5085;48.092;11.484;2023-03-03T08:57:25;36.70;;;13.13;;
10092;SDS011;5085;48.092;11.484;2023-03-03T08:59:51;38.35;;;14.38;;
10092;SDS011;5085;48.092;11.484;2023-03-03T09:02:17;38.60;;;15.13;;
10092;SDS011;5085;48.092;11.484;2023-03-03T09:04:43;36.42;;;14.23;;
10092;SDS011;5085;48.092;11.484;2023-03-03T09:07:09;38.50;;;15.38;;
10092;SDS011;5085;48.092;11.484;2023-03-03T09:09:36;46.70;;;14.27;;
10092;SDS011;5085;48.092;11.484;2023-03-03T09:12:46;36.17;;;15.02;;
10092;SDS011;5085;48.092;11.484;2023-03-03T09:15:25;41.15;;;14.02;;
10092;SDS011;5085;48.092;11.484;2023-03-03T09:17:59;39.55;;;14.15;;
10092;SDS011;5085;48.092;11.484;2023-03-03T09:20:40;38.50;;;13.65;;
10092;SDS011;5085;48.092;11.484;2023-03-03T09:28:36;33.50;;;13.32;;
10092;SDS011;5085;48.092;11.484;2023-03-03T09:31:02;45.70;;;16.13;;
10092;SDS011;5085;48.092;11.484;2023-03-03T09:33:30;33.47;;;13.25;;
10092;SDS011;5085;48.092;11.484;2023-03-03T09:36:14;38.08;;;14.73;;
10092;SDS011;5085;48.092;11.484;2023-03-03T09:38:48;43.72;;;14.55;;
10092;SDS011;5085;48.092;11.484;2023-03-03T09:50:06;35.30;;;15.52;;
10092;SDS011;5085;48.092;11.484;2023-03-03T09:52:45;33.67;;;13.55;;
10092;SDS011;5085;48.092;11.484;2023-03-03T10:06:06;32.35;;;14.48;;
10092;SDS011;5085;48.092;11.484;2023-03-03T10:09:22;38.05;;;15.63;;
10092;SDS011;5085;48.092;11.484;2023-03-03T10:14:47;35.50;;;14.50;;
10092;SDS011;5085;48.092;11.484;2023-03-03T10:25:21;34.65;;;14.63;;
10092;SDS011;5085;48.092;11.484;2023-03-03T10:28:17;41.47;;;16.50;;
10092;SDS011;5085;48.092;11.484;2023-03-03T10:36:45;38.30;;;15.43;;
10092;SDS011;5085;48.092;11.484;2023-03-03T10:42:13;41.70;;;15.15;;
10092;SDS011;5085;48.092;11.484;2023-03-03T10:53:30;36.35;;;15.10;;
10092;SDS011;5085;48.092;11.484;2023-03-03T10:56:19;36.42;;;14.75;;
10092;SDS011;5085;48.092;11.484;2023-03-03T10:59:00;35.58;;;15.25;;
10092;SDS011;5085;48.092;11.484;2023-03-03T11:04:42;46.55;;;15.82;;
10092;SDS011;5085;48.092;11.484;2023-03-03T11:28:57;36.55;;;14.73;;
10092;SDS011;5085;48.092;11.484;2023-03-03T11:31:45;36.63;;;14.27;;
10092;SDS011;5085;48.092;11.484;2023-03-03T11:36:57;41.83;;;14.68;;
10092;SDS011;5085;48.092;11.484;2023-03-03T11:39:28;36.83;;;15.27;;
10092;SDS011;5085;48.092;11.484;2023-03-03T11:50:16;38.38;;;14.77;;
10092;SDS011;5085;48.092;11.484;2023-03-03T11:55:55;39.75;;;15.07;;
10092;SDS011;5085;48.092;11.484;2023-03-03T12:04:18;39.88;;;15.02;;
10092;SDS011;5085;48.092;11.484;2023-03-03T12:10:30;33.13;;;14.95;;
10092;SDS011;5085;48.092;11.484;2023-03-03T12:13:23;39.10;;;16.25;;
10092;SDS011;5085;48.092;11.484;2023-03-03T12:24:15;41.65;;;15.52;;
10092;SDS011;5085;48.092;11.484;2023-03-03T12:29:40;36.33;;;14.35;;
10092;SDS011;5085;48.092;11.484;2023-03-03T12:34:50;34.33;;;15.73;;
10092;SDS011;5085;48.092;11.484;2023-03-03T12:40:30;38.15;;;16.13;;
10092;SDS011;5085;48.092;11.484;2023-03-03T12:43:01;36.00;;;15.70;;
10092;SDS011;5085;48.092;11.484;2023-03-03T12:46:06;43.55;;;15.85;;
10092;SDS011;5085;48.092;11.484;2023-03-03T12:48:54;37.47;;;16.75;;
10092;SDS011;5085;48.092;11.484;2023-03-03T12:51:32;40.85;;;15.98;;
10092;SDS011;5085;48.092;11.484;2023-03-03T12:54:05;35.72;;;16.40;;
10092;SDS011;5085;48.092;11.484;2023-03-03T13:00:11;35.92;;;16.08;;
10092;SDS011;5085;48.092;11.484;2023-03-03T13:10:51;40.53;;;16.23;;
10092;SDS011;5085;48.092;11.484;2023-03-03T13:16:11;37.33;;;16.50;;
10092;SDS011;5085;48.092;11.484;2023-03-03T13:21:41;39.92;;;17.15;;
10092;SDS011;5085;48.092;11.484;2023-03-03T13:24:20;42.58;;;17.60;;
10092;SDS011;5085;48.092;11.484;2023-03-03T13:29:34;37.65;;;15.60;;
10092;SDS011;5085;48.092;11.484;2023-03-03T13:32:11;42.58;;;17.05;;
10092;SDS011;5085;48.092;11.484;2023-03-03T13:37:34;34.60;;;15.52;;
10092;SDS011;5085;48.092;11.484;2023-03-03T13:42:38;37.05;;;16.58;;
10092;SDS011;5085;48.092;11.484;2023-03-03T13:45:31;36.90;;;15.02;;
10092;SDS011;5085;48.092;11.484;2023-03-03T13:50:52;37.72;;;15.20;;
10092;SDS011;5085;48.092;11.484;2023-03-03T14:02:12;35.63;;;16.27;;
10092;SDS011;5085;48.092;11.484;2023-03-03T14:05:11;38.97;;;16.02;;
10092;SDS011;5085;48.092;11.484;2023-03-03T14:07:44;33.55;;;15.90;;
10092;SDS011;5085;48.092;11.484;2023-03-03T14:10:38;32.35;;;15.23;;
10092;SDS011;5085;48.092;11.484;2023-03-03T14:13:16;36.80;;;16.02;;
10092;SDS011;5085;48.092;11.484;2023-03-03T14:15:57;35.85;;;16.40;;
10092;SDS011;5085;48.092;11.484;2023-03-03T14:18:40;30.95;;;16.30;;
10092;SDS011;5085;48.092;11.484;2023-03-03T14:21:28;33.80;;;17.55;;
10092;SDS011;5085;48.092;11.484;2023-03-03T14:24:14;35.70;;;17.98;;
10092;SDS011;5085;48.092;11.484;2023-03-03T14:26:53;35.60;;;17.10;;
10092;SDS011;5085;48.092;11.484;2023-03-03T14:31:53;35.33;;;16.83;;
10092;SDS011;5085;48.092;11.484;2023-03-03T14:34:33;33.13;;;17.98;;
10092;SDS011;5085;48.092;11.484;2023-03-03T14:45:22;33.63;;;16.77;;
10092;SDS011;5085;48.092;11.484;2023-03-03T14:47:58;35.15;;;16.30;;
10092;SDS011;5085;48.092;11.484;2023-03-03T14:50:36;34.55;;;16.98;;
10092;SDS011;5085;48.092;11.484;2023-03-03T14:53:11;34.40;;;16.20;;
10092;SDS011;5085;48.092;11.484;2023-03-03T14:55:42;31.80;;;15.18;;
10092;SDS011;5085;48.092;11.484;2023-03-03T14:58:23;37.80;;;16.95;;
10092;SDS011;5085;48.092;11.484;2023-03-03T15:01:33;32.80;;;15.52;;
10092;SDS011;5085;48.092;11.484;2023-03-03T15:04:06;40.22;;;15.30;;
10092;SDS011;5085;48.092;11.484;2023-03-03T15:06:48;35.58;;;14.73;;
10092;SDS011;5085;48.092;11.484;2023-03-03T15:12:21;38.65;;;16.85;;
10092;SDS011;5085;48.092;11.484;2023-03-03T15:14:51;40.50;;;14.75;;
10092;SDS011;5085;48.092;11.484;2023-03-03T15:17:28;35.42;;;16.15;;
10092;SDS011;5085;48.092;11.484;2023-03-03T15:20:15;34.45;;;16.17;;
10092;SDS011;5085;48.092;11.484;2023-03-03T15:26:07;37.60;;;14.88;;
10092;SDS011;5085;48.092;11.484;2023-03-03T15:32:04;35.53;;;16.13;;
10092;SDS011;5085;48.092;11.484;2023-03-03T15:40:28;34.17;;;14.13;;
10092;SDS011;5085;48.092;11.484;2023-03-03T15:54:34;31.98;;;13.68;;
10092;SDS011;5085;48.092;11.484;2023-03-03T15:59:47;32.25;;;13.90;;
10092;SDS011;5085;48.092;11.484;2023-03-03T16:02:49;29.48;;;13.50;;
10092;SDS011;5085;48.092;11.484;2023-03-03T16:05:33;31.27;;;13.85;;
10092;SDS011;5085;48.092;11.484;2023-03-03T16:08:08;29.90;;;13.82;;
10092;SDS011;5085;48.092;11.484;2023-03-03T16:16:19;31.88;;;12.65;;
10092;SDS011;5085;48.092;11.484;2023-03-03T16:22:01;54.25;;;23.13;;
10092;SDS011;5085;48.092;11.484;2023-03-03T16:24:42;48.30;;;19.65;;
10092;SDS011;5085;48.092;11.484;2023-03-03T16:33:31;31.55;;;14.43;;
10092;SDS011;5085;48.092;11.484;2023-03-03T16:36:04;29.13;;;13.15;;
10092;SDS011;5085;48.092;11.484;2023-03-03T16:38:38;33.55;;;14.77;;
10092;SDS011;5085;48.092;11.484;2023-03-03T16:41:17;34.45;;;13.77;;
10092;SDS011;5085;48.092;11.484;2023-03-03T16:43:53;32.00;;;13.27;;
10092;SDS011;5085;48.092;11.484;2023-03-03T16:46:42;33.97;;;14.27;;
10092;SDS011;5085;48.092;11.484;2023-03-03T16:52:02;35.20;;;13.95;;
10092;SDS011;5085;48.092;11.484;2023-03-03T16:54:37;34.70;;;13.85;;
10092;SDS011;5085;48.092;11.484;2023-03-03T16:57:21;33.03;;;14.00;;
10092;SDS011;5085;48.092;11.484;2023-03-03T17:00:04;33.10;;;13.43;;
10092;SDS011;5085;48.092;11.484;2023-03-03T17:11:21;32.25;;;12.80;;
10092;SDS011;5085;48.092;11.484;2023-03-03T17:16:34;30.70;;;12.65;;
10092;SDS011;5085;48.092;11.484;2023-03-03T17:19:16;35.92;;;14.05;;
10092;SDS011;5085;48.092;11.484;2023-03-03T17:27:48;36.15;;;14.95;;
10092;SDS011;5085;48.092;11.484;2023-03-03T17:47:03;39.10;;;15.60;;
10092;SDS011;5085;48.092;11.484;2023-03-03T18:00:52;32.20;;;13.57;;
10092;SDS011;5085;48.092;11.484;2023-03-03T18:11:39;31.00;;;12.27;;
10092;SDS011;5085;48.092;11.484;2023-03-03T18:14:28;39.42;;;13.80;;
10092;SDS011;5085;48.092;11.484;2023-03-03T18:17:11;41.40;;;14.68;;
10092;SDS011;5085;48.092;11.484;2023-03-03T18:22:50;40.05;;;16.23;;
10092;SDS011;5085;48.092;11.484;2023-03-03T18:25:18;39.67;;;14.82;;
10092;SDS011;5085;48.092;11.484;2023-03-03T18:27:47;39.70;;;15.65;;
10092;SDS011;5085;48.092;11.484;2023-03-03T18:33:30;38.20;;;15.38;;
10092;SDS011;5085;48.092;11.484;2023-03-03T18:36:34;47.47;;;16.58;;
10092;SDS011;5085;48.092;11.484;2023-03-03T18:38:58;38.35;;;15.60;;
10092;SDS011;5085;48.092;11.484;2023-03-03T18:41:27;44.92;;;17.48;;
10092;SDS011;5085;48.092;11.484;2023-03-03T18:44:00;43.28;;;18.02;;
10092;SDS011;5085;48.092;11.484;2023-03-03T18:49:08;47.55;;;17.55;;
10092;SDS011;5085;48.092;11.484;2023-03-03T18:54:06;38.42;;;16.23;;
10092;SDS011;5085;48.092;11.484;2023-03-03T19:04:50;40.13;;;14.45;;
10092;SDS011;5085;48.092;11.484;2023-03-03T19:07:20;30.20;;;13.10;;
10092;SDS011;5085;48.092;11.484;2023-03-03T19:18:04;36.58;;;15.23;;
10092;SDS011;5085;48.092;11.484;2023-03-03T19:20:40;38.35;;;13.93;;
10092;SDS011;5085;48.092;11.484;2023-03-03T19:23:16;40.42;;;16.17;;
10092;SDS011;5085;48.092;11.484;2023-03-03T19:25:45;35.55;;;14.85;;
10092;SDS011;5085;48.092;11.484;2023-03-03T19:28:38;33.22;;;14.35;;
10092;SDS011;5085;48.092;11.484;2023-03-03T19:31:32;30.33;;;12.93;;
10092;SDS011;5085;48.092;11.484;2023-03-03T19:34:22;36.25;;;14.32;;
10092;SDS011;5085;48.092;11.484;2023-03-03T19:48:23;40.95;;;16.27;;
10092;SDS011;5085;48.092;11.484;2023-03-03T19:54:13;33.67;;;14.02;;
10092;SDS011;5085;48.092;11.484;2023-03-03T19:56:52;36.78;;;13.77;;
10092;SDS011;5085;48.092;11.484;2023-03-03T19:59:21;35.15;;;15.18;;
10092;SDS011;5085;48.092;11.484;2023-03-03T20:02:14;40.63;;;15.75;;
10092;SDS011;5085;48.092;11.484;2023-03-03T20:04:58;38.55;;;15.07;;
10092;SDS011;5085;48.092;11.484;2023-03-03T20:07:44;47.58;;;17.17;;
10092;SDS011;5085;48.092;11.484;2023-03-03T20:12:52;37.25;;;13.48;;
10092;SDS011;5085;48.092;11.484;2023-03-03T20:28:52;39.33;;;16.00;;
10092;SDS011;5085;48.092;11.484;2023-03-03T20:34:08;39.28;;;16.25;;
10092;SDS011;5085;48.092;11.484;2023-03-03T20:42:27;34.75;;;14.70;;
10092;SDS011;5085;48.092;11.484;2023-03-03T20:51:00;39.25;;;14.05;;
10092;SDS011;5085;48.092;11.484;2023-03-03T21:01:15;32.53;;;13.30;;
10092;SDS011;5085;48.092;11.484;2023-03-03T21:03:52;33.45;;;12.88;;
10092;SDS011;5085;48.092;11.484;2023-03-03T21:06:18;35.65;;;14.02;;
10092;SDS011;5085;48.092;11.484;2023-03-03T21:11:39;38.00;;;13.88;;
10092;SDS011;5085;48.092;11.484;2023-03-03T21:14:40;31.52;;;14.13;;